Ana Sayfa
METAR-TAF:

METAR-TAF

Havaalanları :

Afton, Wyoming, Amerika Birleşik Devletleri

Enlem: 42-42-32N, Boylam: 110-56-32W, yükseklik: 1896 m

Güncel hava durumu gözlemi

Rapor saat 15:35 UTC de 12 dakika önce yapıldı.
Sakin rüzgar
Sıcaklık -15°C
Nem 92%
Basınç 1029 hPa
Görüş mesafesi: 11.3 km
200 ft yükseklikte parçalı çok bulutlu

METAR: KAFO 281535Z AUTO 00000KT 7SM BKN002 M15/M16 A3040 RMK AO2

Saat: 08:47 (15:47 UTC)


TAF: eksik

4.000'den fazla havaalanı için hava durumu gözlemleri ve tahminleri (METAR ve TAF raporları).

Kullanılabilir istasyonlar harita üzerinde sarı ve kırmızı noktalarla gösterilir.

İstasyonun adını görmek için fareyi noktanın üzerinde gezdirin.

Sonrasında hava gözlem ve tahminlerini görmek için tıklayın.

Haritayı değiştirmek için: yaklaştırmak için siyah artı işaretli yeşil düğmeye ve uzaklaştırmak için de eksi işaretli düğmeye hızla tıklayın; bitişik haritalar için yeşil okları kullanın.


METAR-TAF: